Venice, CA (90291)

6:16 AM PDT on July 06, 2015 (GMT -0700)
Abbot Kinney | | Change Station
CLOSE
Current Station
Personal Weather Station
Location: Venice, CA
Elevation: 20 ft
Nearby Weather Stations

Elev 20 ft 33.99 °N, 118.47 °W | Updated 54 seconds ago

Overcast
Overcast
64.6 °F
Feels Like 64.6 °F
N
1.0
Wind Variable Wind from West
Gusts 0.0 mph

Today
High -- | Low -- °F
--% Chance of Precip.
Yesterday
High -- | Low -- °F
Precip. -- in
5:48 AM 8:08 PM
Waning Gibbous, 75% visible
Pressure 30.03 in
Visibility 10.0 miles
Clouds Overcast 1200 ft
Dew Point 61 °F
Humidity 88%
Rainfall 0.00 in
Snow Depth Not available.
UV 0.0 out of 12
Pollen 3.10 out of 12
Air Quality Not available.
Flu Activity Not available.
METAR KSMO 061251Z AUTO 22004KT 10SM OVC012 17/15 A3003 RMK AO2 SLP169 T01670150 $

More Conditions Fewer Conditions

Pressure 30.03 in
Visibility 10.0 miles
Clouds Overcast 1200 ft
Dew Point 61 °F
Humidity 88%
Rainfall 0.00 in
Snow Depth Not available.
UV 0.0 out of 12
Pollen 3.10 out of 12
Air Quality Not available.
Flu Activity Not available.
METAR KSMO 061251Z AUTO 22004KT 10SM OVC012 17/15 A3003 RMK AO2 SLP169 T01670150 $

More Conditions Fewer Conditions

10-Day Weather Forecast

×

Almanac

Astronomy

Jul. 06, 2015 Rise Set
Actual Time
Civil Twilight
Nautical Twilight
Astronomical Twilight
Moon
Length of Visible Light
Length of Day
Tomorrow will be .
, % of the Moon is Illuminated

Today's Extremes

State Highs State Lows

Community

WunderPhotos

Upload Photos

1,835,551 photos uploaded!

WunderBlogs® & News

Nearby

Air Quality

  Air Quality AQ Index Pollutant
Not available.

Snow Depth

Station Depth Elevation

Earthquake Activity

City Distance Mag. Time & Date
Minimum magnitude displayed is 2.5.

Coastal Water Temperatures

Place Temperature

Stations

Nearby Weather Stations

Station Location Temp. Windchill Dew Point Humidity Wind Precip. Elev Updated Type